Flight Track Log - Related Links

Times and Time Zones

All times are in EDT time to prevent confusion due to time zone crossing. See the AWI3551 flight status page for this flight to view local times or setup timezone preferences in your user account.

Time Position Orientation Groundspeed Altitude Reporting Facility
EDT Latitude Longitude Course Direction KTS MPH feet Rate Location/Type
Sat 08:22:32 AM 42.7653 -73.8061 126° Southeast 156 180 1,100  Level Boston Center
Sat 08:23:14 AM 42.7944 -73.8125 351° North 171 197 2,500 2,330 Climbing Boston Center
Sat 08:24:15 AM 42.8481 -73.8475 334° Northwest 219 252 5,100 2,588 Climbing Boston Center
Sat 08:24:56 AM 42.8811 -73.8681 336° Northwest 214 246 6,900 2,554 Climbing Boston Center
Sat 08:25:00 AM 42.4882 -74.0334 171° South  Level Estimated
Sat 08:25:56 AM 42.9369 -73.9064 333° Northwest 241 277 9,400  Level Boston Center
Sat 08:26:00 AM 42.4011 -74.1102 172° South  Level Estimated
Sat 08:26:56 AM 42.9675 -73.9581 309° West 209 241 11,600  Level Boston Center
Sat 08:27:00 AM 42.3394 -73.9972 126° Southeast  Level FlightAware Approximate
Sat 08:27:56 AM 42.9497 -74.0428 254° West 201 231 13,000  Level Boston Center
Sat 08:28:56 AM 42.9317 -74.1331 255° West 259 298 14,500 1,750 Climbing Boston Center
Sat 08:29:56 AM 42.8781 -74.2308 233° Southwest 291 335 16,500 1,700 Climbing Boston Center
Sat 08:30:56 AM 42.8208 -74.2997 221° Southwest 307 353 17,900 1,300 Climbing Boston Center
Sat 08:31:56 AM 42.7428 -74.3483 205° Southwest 317 365 19,100 1,200 Climbing Boston Center
Sat 08:32:56 AM 42.6522 -74.2836 152° Southeast 308 354 20,300 1,350 Climbing Boston Center
Sat 08:33:56 AM 42.5636 -74.2161 151° Southeast 330 380 21,800 1,450 Climbing Boston Center
Sat 08:34:56 AM 42.4708 -74.1458 151° Southeast 356 410 23,200 1,250 Climbing Boston Center
Sat 08:35:56 AM 42.3783 -74.0731 150° Southeast 369 425 24,300 1,091 Climbing Boston Center
Sat 08:37:08 AM 42.2647 -73.9858 150° Southeast 385 443 25,600 773 Climbing Boston Center
Sat 08:38:08 AM 42.1700 -73.9136 151° Southeast 391 450 26,000 200 Climbing Boston Center
Sat 08:39:08 AM 42.0769 -73.8414 150° Southeast 391 450 26,000  Level Boston Center
Sat 08:40:08 AM 41.9800 -73.7667 150° Southeast 391 450 26,000  Level Boston Center
Sat 08:41:08 AM 41.8892 -73.6839 146° Southeast 391 450 26,000  Level Boston Center
Sat 08:42:08 AM 41.8131 -73.5792 134° Southeast 391 450 26,000  Level Boston Center
Sat 08:44:05 AM 41.6431 -73.4639 153° Southeast 355 409 26,000  Level New York Center
Sat 08:45:05 AM 41.5706 -73.5414 219° Southwest 301 346 26,000  Level New York Center
Sat 08:46:04 AM 41.4936 -73.6267 220° Southwest 332 382 26,000  Level New York Center
Sat 08:47:04 AM 41.4144 -73.7144 220° Southwest 356 410 26,000  Level New York Center
Sat 08:48:04 AM 41.3286 -73.8103 220° Southwest 384 442 26,000  Level New York Center
Sat 08:49:06 AM 41.2450 -73.9031 220° Southwest 396 456 26,000  Level New York Center
Sat 08:50:03 AM 41.1569 -74.0036 221° Southwest 407 468 26,000  Level New York Center
Sat 08:51:04 AM 41.0689 -74.0983 219° Southwest 412 474 26,000  Level New York Center
Sat 08:52:04 AM 40.9700 -74.2061 219° Southwest 412 474 26,000  Level New York Center
Sat 08:53:04 AM 40.8797 -74.3006 218° Southwest 417 480 26,000  Level New York Center
Sat 08:54:06 AM 40.7911 -74.4028 221° Southwest 417 480 26,000  Level New York Center
Sat 08:55:04 AM 40.7167 -74.5192 230° Southwest 411 473 26,000 -254 Level New York Center
Sat 08:56:04 AM 40.6564 -74.6472 238° Southwest 416 479 25,500 -793 Descending New York Center
Sat 08:57:05 AM 40.6167 -74.7764 248° West 400 460 24,400 -1,059 Descending New York Center
Sat 08:58:03 AM 40.5703 -74.9075 245° Southwest 395 455 23,400 -1,008 Descending New York Center
Sat 08:59:04 AM 40.5039 -75.0181 232° Southwest 395 455 22,400 -700 Descending New York Center
Sat 09:00:03 AM 40.4353 -75.1283 231° Southwest 395 455 22,000 -198 Descending New York Center
Sat 09:01:05 AM 40.3686 -75.2386 232° Southwest 395 455 22,000  Level New York Center
Sat 09:02:05 AM 40.3019 -75.3486 232° Southwest 395 455 22,000  Level New York Center
Sat 09:03:05 AM 40.2153 -75.4297 216° Southwest 385 443 22,000  Level New York Center
Sat 09:04:04 AM 40.1250 -75.5025 212° Southwest 385 443 22,000  Level New York Center
Sat 09:05:04 AM 40.0342 -75.5803 213° Southwest 390 449 22,000 -149 Level New York Center
Sat 09:06:05 AM 39.9414 -75.6581 213° Southwest 396 456 21,700 -645 Descending New York Center
Sat 09:07:05 AM 39.8747 -75.7589 229° Southwest 377 434 20,700 -1,017 Descending New York Center
Sat 09:08:03 AM 39.8156 -75.8708 235° Southwest 382 440 19,700 -1,169 Descending New York Center
Sat 09:09:03 AM 39.7614 -75.9694 234° Southwest 382 440 18,400 -1,230 Descending New York Center
Sat 09:10:05 AM 39.7064 -76.0789 237° Southwest 371 427 17,200 -1,426 Descending New York Center
Sat 09:11:05 AM 39.6447 -76.1956 236° Southwest 366 421 15,500 -1,600 Descending New York Center
Sat 09:12:20 AM 39.5667 -76.3167 230° Southwest 352 405 13,600 -1,511 Descending Potomac TRACON
Sat 09:13:20 AM 39.4833 -76.3833 212° Southwest 338 389 12,100 -800 Descending Potomac TRACON
Sat 09:14:20 AM 39.4000 -76.4500 212° Southwest 334 384 12,000 -350 Descending Potomac TRACON
Sat 09:15:20 AM 39.3333 -76.5167 218° Southwest 328 377 11,400 -800 Descending Potomac TRACON
Sat 09:16:20 AM 39.2500 -76.5833 212° Southwest 334 384 10,400 -730 Descending Potomac TRACON
Sat 09:17:15 AM 39.1833 -76.6500 218° Southwest 291 335 10,000 -209 Descending Potomac TRACON
Sat 09:18:15 AM 39.1333 -76.7167 226° Southwest 273 314 10,000  Level Potomac TRACON
Sat 09:19:21 AM 39.1000 -76.8000 243° Southwest 281 323 10,000 -550 Level Potomac TRACON
Sat 09:20:15 AM 39.0833 -76.8833 256° West 276 318 8,900 -1,111 Descending Potomac TRACON
Sat 09:21:09 AM 39.0667 -76.9833 258° West 275 316 8,000 -1,200 Descending Potomac TRACON
Sat 09:22:15 AM 39.0500 -77.0833 258° West 261 300 6,500 -1,650 Descending Potomac TRACON
Sat 09:23:09 AM 39.0333 -77.1500 252° West 231 266 4,700 -1,632 Descending Potomac TRACON
Sat 09:24:09 AM 39.0167 -77.2167 252° West 212 244 3,400 -900 Descending Potomac TRACON
Sat 09:25:09 AM 38.9833 -77.1833 142° Southeast 189 217 2,900 -500 Descending Potomac TRACON

Login

Don't have an account? Register now (free) for customized features, flight alerts, and more!